Time;durP1;ratioP1;P1;durP2;ratioP2;P2;SDS_P1;SDS_P2;PMS_P1;PMS_P2;Temp;Humidity;BMP_temperature;BMP_pressure;BME280_temperature;BME280_humidity;BME280_pressure;Samples;Min_cycle;Max_cycle;Signal;HPM_P1;HPM_P2
2022/07/19 00:00:11;;;;;;;;;;;;;;;30.84;45.88;98994.63;2100888;28;20401;-71
2022/07/19 00:01:11;;;;;;;;;;;;;;;30.84;45.62;98985.56;2098608;28;19963;-71
2022/07/19 00:02:13;;;;;;;;;;;;;;;30.84;45.69;98999.25;2103995;28;19927;-71
2022/07/19 00:03:14;;;;;;;;;;;;;;;30.84;45.78;98997.34;2101865;28;19939;-71
2022/07/19 00:04:15;;;;;;;;;;;;;;;30.84;45.93;98991.88;2101266;28;20498;-71
2022/07/19 00:05:17;;;;;;;;;;;;;;;30.83;45.56;98995.69;2102987;28;19924;-72
2022/07/19 00:06:18;;;;;;;;;;;;;;;30.84;45.93;98994.63;2102265;28;19924;-71
2022/07/19 00:07:19;;;;;;;;;;;;;;;30.84;45.88;98994.63;2105378;28;20022;-72
2022/07/19 00:08:20;;;;;;;;;;;;;;;30.83;45.69;98990.22;2101885;28;19936;-72
2022/07/19 00:09:21;;;;;;;;;;;;;;;30.83;45.96;98992.97;2104336;28;19932;-71
2022/07/19 00:10:23;;;;;;;;;;;;;;;30.82;45.57;98988.59;2102871;28;20415;-71
2022/07/19 00:11:24;;;;;;;;;;;;;;;30.83;45.54;98989.41;2103376;28;19934;-71
2022/07/19 00:12:26;;;;;;;;;;;;;;;30.84;45.69;98985.56;2103919;28;20418;-71
2022/07/19 00:13:26;;;;;;;;;;;;;;;30.83;45.89;98987.47;2103547;28;20711;-71
2022/07/19 00:14:28;;;;;;;;;;;;;;;30.83;45.93;98981.19;2101551;28;20648;-71
2022/07/19 00:15:33;;;;;;;;;;;;;;;30.83;45.91;98978.44;2102461;28;20499;-72
2022/07/19 00:16:33;;;;;;;;;;;;;;;30.83;45.84;98989.41;2103062;28;19970;-71
2022/07/19 00:17:35;;;;;;;;;;;;;;;30.82;45.53;98985.84;2104996;28;19939;-72
2022/07/19 00:18:35;;;;;;;;;;;;;;;30.82;45.73;98983.13;2102205;28;20201;-71
2022/07/19 00:19:37;;;;;;;;;;;;;;;30.82;45.91;98980.38;2102666;28;20173;-72
2022/07/19 00:20:37;;;;;;;;;;;;;;;30.82;45.67;98991.31;2099854;28;20465;-72
2022/07/19 00:21:39;;;;;;;;;;;;;;;30.83;45.54;98989.41;2101986;28;19932;-71
2022/07/19 00:22:39;;;;;;;;;;;;;;;30.82;45.89;98982.28;2098769;28;22955;-71
2022/07/19 00:23:41;;;;;;;;;;;;;;;30.83;45.75;98989.41;2103871;28;19981;-72
2022/07/19 00:24:41;;;;;;;;;;;;;;;30.81;45.49;98986.94;2102091;28;20365;-72
2022/07/19 00:25:43;;;;;;;;;;;;;;;30.81;45.72;98991.59;2102914;28;19928;-72
2022/07/19 00:26:44;;;;;;;;;;;;;;;30.81;45.70;98989.66;2103223;28;20020;-71
2022/07/19 00:27:45;;;;;;;;;;;;;;;30.81;45.91;98986.94;2100235;28;20081;-71
2022/07/19 00:28:46;;;;;;;;;;;;;;;30.81;45.95;98984.19;2103576;28;20238;-72
2022/07/19 00:29:47;;;;;;;;;;;;;;;30.80;45.85;98982.56;2103555;28;20552;-71
2022/07/19 00:30:49;;;;;;;;;;;;;;;30.79;45.79;98978.16;2102674;28;20388;-71
2022/07/19 00:31:51;;;;;;;;;;;;;;;30.81;45.67;98983.38;2105374;28;19924;-71
2022/07/19 00:32:53;;;;;;;;;;;;;;;30.81;45.88;98983.38;2103466;28;19938;-71
2022/07/19 00:33:54;;;;;;;;;;;;;;;30.80;45.85;98985.28;2100933;28;20007;-71
2022/07/19 00:34:55;;;;;;;;;;;;;;;30.81;45.89;98977.91;2104010;28;19935;-72
2022/07/19 00:35:56;;;;;;;;;;;;;;;30.81;45.84;98981.44;2104809;28;19928;-71
2022/07/19 00:36:57;;;;;;;;;;;;;;;30.80;45.84;98979.00;2099099;28;20042;-72
2022/07/19 00:38:02;;;;;;;;;;;;;;;30.79;45.91;98983.63;2106201;28;19928;-72
2022/07/19 00:39:04;;;;;;;;;;;;;;;30.80;45.86;98979.81;2102874;28;19928;-71
2022/07/19 00:40:05;;;;;;;;;;;;;;;30.79;45.42;98989.13;2101577;28;19928;-71
2022/07/19 00:41:07;;;;;;;;;;;;;;;30.79;45.72;98986.38;2099301;28;19932;-71
2022/07/19 00:42:08;;;;;;;;;;;;;;;30.79;45.40;98985.56;2103068;28;20357;-71
2022/07/19 00:43:10;;;;;;;;;;;;;;;30.80;45.76;98989.97;2100709;28;19934;-70
2022/07/19 00:44:13;;;;;;;;;;;;;;;30.79;45.62;98988.28;2101233;28;19966;-71
2022/07/19 00:45:15;;;;;;;;;;;;;;;30.79;45.71;99000.06;2102679;28;19940;-71
2022/07/19 00:46:18;;;;;;;;;;;;;;;30.78;45.38;98990.19;2102898;28;19932;-71
2022/07/19 00:47:20;;;;;;;;;;;;;;;30.79;45.71;98993.78;2104283;28;20124;-71
2022/07/19 00:48:21;;;;;;;;;;;;;;;30.78;45.79;98989.38;2100406;28;20380;-71
2022/07/19 00:49:23;;;;;;;;;;;;;;;30.78;45.80;98997.59;2103798;28;19939;-71
2022/07/19 00:50:23;;;;;;;;;;;;;;;30.77;45.62;98991.28;2098662;28;20371;-70
2022/07/19 00:51:25;;;;;;;;;;;;;;;30.78;45.73;98992.94;2102525;28;20425;-71
2022/07/19 00:52:28;;;;;;;;;;;;;;;30.77;45.52;98985.81;2100370;28;19936;-71
2022/07/19 00:53:30;;;;;;;;;;;;;;;30.78;45.75;98992.94;2102218;28;20520;-71
2022/07/19 00:54:33;;;;;;;;;;;;;;;30.78;45.80;98987.44;2102102;28;19928;-71
2022/07/19 00:55:38;;;;;;;;;;;;;;;30.78;45.63;98992.94;2104484;28;19981;-71
2022/07/19 00:56:40;;;;;;;;;;;;;;;30.77;45.50;98995.97;2105339;28;19992;-71
2022/07/19 00:57:42;;;;;;;;;;;;;;;30.78;45.56;98990.19;2105491;28;20471;-71
2022/07/19 00:58:42;;;;;;;;;;;;;;;30.77;45.46;98990.47;2099478;28;19928;-72
2022/07/19 00:59:46;;;;;;;;;;;;;;;30.77;45.49;98991.28;2102569;28;20123;-71
2022/07/19 01:00:47;;;;;;;;;;;;;;;30.77;45.58;98982.28;2101460;28;20452;-71
2022/07/19 01:01:50;;;;;;;;;;;;;;;30.76;45.59;98984.19;2102212;28;19950;-71
2022/07/19 01:02:51;;;;;;;;;;;;;;;30.77;45.79;98990.47;2103606;28;19923;-71
2022/07/19 01:03:53;;;;;;;;;;;;;;;30.77;45.48;98985.00;2104724;28;19942;-71
2022/07/19 01:04:54;;;;;;;;;;;;;;;30.77;45.43;98987.75;2090305;28;20292;-71
2022/07/19 01:05:56;;;;;;;;;;;;;;;30.75;45.43;98988.00;2102373;28;19959;-71
2022/07/19 01:06:56;;;;;;;;;;;;;;;30.76;45.42;98994.28;2103891;28;19931;-70
2022/07/19 01:07:58;;;;;;;;;;;;;;;30.75;45.49;98988.00;2106054;28;19924;-71
2022/07/19 01:08:58;;;;;;;;;;;;;;;30.75;45.42;98988.00;2103971;28;19938;-71
2022/07/19 01:10:00;;;;;;;;;;;;;;;30.76;45.54;98988.81;2104557;28;20023;-71
2022/07/19 01:11:02;;;;;;;;;;;;;;;30.75;45.46;98993.47;2092486;28;19928;-71
2022/07/19 01:12:04;;;;;;;;;;;;;;;30.75;45.35;98996.22;2102146;28;20384;-71
2022/07/19 01:13:05;;;;;;;;;;;;;;;30.75;45.59;98982.53;2098143;28;19935;-68
2022/07/19 01:14:07;;;;;;;;;;;;;;;30.75;45.77;98993.47;2103878;28;20245;-71
2022/07/19 01:15:15;;;;;;;;;;;;;;;30.75;45.72;98995.41;2097872;28;20464;-71
2022/07/19 01:16:17;;;;;;;;;;;;;;;30.75;45.58;98993.47;2102464;28;20293;-71
2022/07/19 01:17:19;;;;;;;;;;;;;;;30.74;45.58;98991.84;2102349;28;19958;-71
2022/07/19 01:18:20;;;;;;;;;;;;;;;30.74;45.33;98986.38;2100107;28;20140;-70
2022/07/19 01:19:21;;;;;;;;;;;;;;;30.74;45.57;98986.38;2100521;28;19934;-71
2022/07/19 01:20:23;;;;;;;;;;;;;;;30.75;45.73;98988.00;2102703;28;20342;-71
2022/07/19 01:21:26;;;;;;;;;;;;;;;30.74;45.72;98986.38;2101508;28;20478;-71
2022/07/19 01:22:28;;;;;;;;;;;;;;;30.74;45.33;98997.31;2098070;28;19924;-70
2022/07/19 01:23:29;;;;;;;;;;;;;;;30.74;45.50;98986.38;2098297;28;20604;-71
2022/07/19 01:24:30;;;;;;;;;;;;;;;30.73;45.58;98990.22;2099803;28;19981;-70
2022/07/19 01:25:34;;;;;;;;;;;;;;;30.73;45.41;98982.00;2100906;28;20038;-71
2022/07/19 01:26:35;;;;;;;;;;;;;;;30.73;45.37;98992.97;2101934;28;20204;-71
2022/07/19 01:27:40;;;;;;;;;;;;;;;30.73;45.29;98995.69;2103360;28;19954;-71
2022/07/19 01:28:42;;;;;;;;;;;;;;;30.72;45.25;98988.56;2103631;28;20195;-70
2022/07/19 01:29:42;;;;;;;;;;;;;;;30.72;45.38;98988.56;2102890;28;19928;-71
2022/07/19 01:30:44;;;;;;;;;;;;;;;30.73;45.36;98984.75;2100684;28;19931;-71
2022/07/19 01:31:45;;;;;;;;;;;;;;;30.72;45.28;98994.03;2105742;28;19923;-71
2022/07/19 01:32:47;;;;;;;;;;;;;;;30.72;45.46;98983.09;2103275;28;19928;-71
2022/07/19 01:33:48;;;;;;;;;;;;;;;30.72;45.60;98989.38;2100006;28;20037;-71
2022/07/19 01:34:49;;;;;;;;;;;;;;;30.72;45.40;98994.03;2104515;28;19927;-71
2022/07/19 01:35:50;;;;;;;;;;;;;;;30.71;45.30;98982.28;2101047;28;20423;-71
2022/07/19 01:36:52;;;;;;;;;;;;;;;30.72;45.38;98988.56;2104092;28;19932;-71
2022/07/19 01:37:54;;;;;;;;;;;;;;;30.72;45.12;98983.09;2103582;28;20405;-71
2022/07/19 01:38:55;;;;;;;;;;;;;;;30.71;45.46;98987.75;2099527;28;20085;-71
2022/07/19 01:39:58;;;;;;;;;;;;;;;30.71;45.53;98987.75;2099976;28;19953;-71
2022/07/19 01:40:59;;;;;;;;;;;;;;;30.71;45.56;98981.44;2095032;28;20022;-71
2022/07/19 01:42:00;;;;;;;;;;;;;;;30.71;45.32;98981.44;2103199;28;19936;-71
2022/07/19 01:43:02;;;;;;;;;;;;;;;30.70;45.53;98980.63;2102825;28;20365;-71
2022/07/19 01:44:03;;;;;;;;;;;;;;;30.71;45.42;98989.66;2103634;28;20100;-71
2022/07/19 01:45:05;;;;;;;;;;;;;;;30.70;45.32;98990.75;2100512;28;19935;-71
2022/07/19 01:46:25;;;;;;;;;;;;;;;30.71;45.47;98993.22;2101579;28;19934;-71
2022/07/19 01:47:26;;;;;;;;;;;;;;;30.70;45.49;98986.13;2101028;28;19936;-71
2022/07/19 01:48:28;;;;;;;;;;;;;;;30.71;45.52;98987.75;2102833;27;20598;-71
2022/07/19 01:49:28;;;;;;;;;;;;;;;30.70;45.70;98985.28;2096400;28;20376;-71
2022/07/19 01:50:30;;;;;;;;;;;;;;;30.70;45.41;98979.78;2101901;28;20035;-70
2022/07/19 01:51:30;;;;;;;;;;;;;;;30.70;45.34;98985.28;2098162;28;19932;-71
2022/07/19 01:52:33;;;;;;;;;;;;;;;30.70;45.29;98990.75;2103815;28;20328;-71
2022/07/19 01:53:34;;;;;;;;;;;;;;;30.70;45.32;98985.28;2105331;28;19957;-71
2022/07/19 01:54:36;;;;;;;;;;;;;;;30.70;45.47;98979.78;2098906;28;20156;-71
2022/07/19 01:55:36;;;;;;;;;;;;;;;30.69;45.30;98986.38;2103051;28;20381;-71
2022/07/19 01:56:42;;;;;;;;;;;;;;;30.69;45.48;98989.94;2097003;28;19928;-71
2022/07/19 01:57:42;;;;;;;;;;;;;;;30.69;45.60;98989.13;2101431;28;19951;-71
2022/07/19 01:58:44;;;;;;;;;;;;;;;30.69;45.41;98987.19;2097134;28;19923;-71
2022/07/19 01:59:45;;;;;;;;;;;;;;;30.70;45.38;98985.28;2104444;28;20053;-71
2022/07/19 02:00:46;;;;;;;;;;;;;;;30.68;45.67;98984.75;2100362;28;20424;-71
2022/07/19 02:01:47;;;;;;;;;;;;;;;30.69;45.45;98983.63;2102197;28;20389;-71
2022/07/19 02:02:49;;;;;;;;;;;;;;;30.68;45.42;98988.28;2100748;28;19927;-71
2022/07/19 02:03:49;;;;;;;;;;;;;;;30.69;45.39;98987.19;2100193;28;19927;-71
2022/07/19 02:04:51;;;;;;;;;;;;;;;30.68;45.47;98982.81;2099947;28;20012;-71
2022/07/19 02:05:52;;;;;;;;;;;;;;;30.68;45.40;98977.34;2104340;28;19950;-70
2022/07/19 02:06:53;;;;;;;;;;;;;;;30.68;45.59;98987.47;2098492;28;19942;-71
2022/07/19 02:07:56;;;;;;;;;;;;;;;30.68;45.31;98987.47;2106791;28;20015;-71
2022/07/19 02:08:56;;;;;;;;;;;;;;;30.68;45.63;98987.47;2097670;28;20835;-71
2022/07/19 02:09:58;;;;;;;;;;;;;;;30.68;45.47;98982.81;2102542;28;21518;-71
2022/07/19 02:11:34;;;;;;;;;;;;;;;30.68;45.46;98987.47;2097328;28;20054;-71
2022/07/19 02:12:20;;;;;;;;;;;;;;;30.67;45.59;98983.09;2100712;28;20197;-71
2022/07/19 02:13:22;;;;;;;;;;;;;;;30.67;45.56;98986.66;2097979;28;20309;-71
2022/07/19 02:14:22;;;;;;;;;;;;;;;30.66;46.00;98985.00;2104996;28;19923;-71
2022/07/19 02:15:24;;;;;;;;;;;;;;;30.67;45.59;98988.56;2102357;28;20312;-70
2022/07/19 02:16:25;;;;;;;;;;;;;;;30.67;45.82;98983.94;2102822;28;20159;-71
2022/07/19 02:17:26;;;;;;;;;;;;;;;30.67;45.59;98983.94;2102530;28;19940;-71
2022/07/19 02:18:27;;;;;;;;;;;;;;;30.66;45.75;98981.44;2103022;28;20335;-71
2022/07/19 02:19:28;;;;;;;;;;;;;;;30.66;45.96;98985.00;2100944;28;19953;-71
2022/07/19 02:20:30;;;;;;;;;;;;;;;30.65;45.85;98982.56;2101748;28;19939;-71
2022/07/19 02:21:30;;;;;;;;;;;;;;;30.66;45.65;98984.19;2099519;28;20036;-71
2022/07/19 02:22:32;;;;;;;;;;;;;;;30.66;45.66;98984.19;2102730;28;19936;-71
2022/07/19 02:23:34;;;;;;;;;;;;;;;30.66;45.60;98981.44;2103543;28;20062;-71
2022/07/19 02:24:36;;;;;;;;;;;;;;;30.66;45.67;98978.72;2102453;28;19963;-71
2022/07/19 02:25:37;;;;;;;;;;;;;;;30.64;45.60;98976.25;2101513;28;19932;-71
2022/07/19 02:26:38;;;;;;;;;;;;;;;30.66;45.81;98984.19;2103196;28;19928;-71
2022/07/19 02:27:39;;;;;;;;;;;;;;;30.65;46.02;98971.59;2101419;28;19945;-71
2022/07/19 02:28:41;;;;;;;;;;;;;;;30.64;45.71;98980.91;2102749;28;19924;-71
2022/07/19 02:29:41;;;;;;;;;;;;;;;30.64;45.67;98987.19;2101795;28;20415;-71
2022/07/19 02:30:43;;;;;;;;;;;;;;;30.65;45.88;98979.81;2102570;28;19923;-71
2022/07/19 02:31:44;;;;;;;;;;;;;;;30.65;45.58;98988.03;2102576;28;19932;-71
2022/07/19 02:32:46;;;;;;;;;;;;;;;30.64;45.72;98980.91;2102909;28;20032;-71
2022/07/19 02:33:46;;;;;;;;;;;;;;;30.65;45.45;98983.38;2101908;28;20397;-71
2022/07/19 02:34:48;;;;;;;;;;;;;;;30.64;45.65;98980.91;2103075;28;20077;-72
2022/07/19 02:35:48;;;;;;;;;;;;;;;30.64;45.74;98986.38;2102060;28;20060;-71
2022/07/19 02:36:50;;;;;;;;;;;;;;;30.64;45.41;98981.72;2102625;28;19938;-72
2022/07/19 02:37:50;;;;;;;;;;;;;;;30.64;45.83;98987.19;2103364;28;19939;-71
2022/07/19 02:38:53;;;;;;;;;;;;;;;30.63;45.64;98982.00;2103274;28;19998;-71
2022/07/19 02:39:54;;;;;;;;;;;;;;;30.64;45.77;98992.66;2105782;28;19924;-71
2022/07/19 02:40:56;;;;;;;;;;;;;;;30.63;45.59;98988.28;2102649;28;20035;-71
2022/07/19 02:41:56;;;;;;;;;;;;;;;30.64;45.67;98986.38;2102497;28;19927;-71
2022/07/19 02:42:58;;;;;;;;;;;;;;;30.64;45.57;98989.13;2102892;28;20195;-71
2022/07/19 02:43:59;;;;;;;;;;;;;;;30.64;45.53;98991.84;2101864;28;19927;-71
2022/07/19 02:45:00;;;;;;;;;;;;;;;30.64;45.49;98989.13;2100287;28;19928;-71
2022/07/19 02:46:01;;;;;;;;;;;;;;;30.63;45.59;98987.47;2104960;28;20172;-71
2022/07/19 02:47:02;;;;;;;;;;;;;;;30.64;45.52;98989.13;2103007;28;19932;-71
2022/07/19 02:48:04;;;;;;;;;;;;;;;30.63;45.64;98984.75;2103046;28;20304;-71
2022/07/19 02:49:06;;;;;;;;;;;;;;;30.63;45.64;98990.22;2101711;28;20566;-71
2022/07/19 02:50:08;;;;;;;;;;;;;;;30.63;45.46;98990.22;2099412;28;20295;-71
2022/07/19 02:51:10;;;;;;;;;;;;;;;30.62;45.50;98983.09;2101006;28;20039;-70
2022/07/19 02:52:12;;;;;;;;;;;;;;;30.61;45.60;98984.19;2103224;28;20163;-71
2022/07/19 02:53:12;;;;;;;;;;;;;;;30.62;45.46;98988.56;2098910;28;19935;-71
2022/07/19 02:54:15;;;;;;;;;;;;;;;30.61;45.59;98993.22;2102205;28;19949;-70
2022/07/19 02:55:16;;;;;;;;;;;;;;;30.61;45.53;98993.22;2103387;28;19924;-71
2022/07/19 02:56:18;;;;;;;;;;;;;;;30.62;45.50;98991.28;2104235;28;20320;-71
2022/07/19 02:57:18;;;;;;;;;;;;;;;30.62;45.74;98988.56;2103404;28;19928;-71
2022/07/19 02:58:20;;;;;;;;;;;;;;;30.61;45.72;98987.75;2102850;28;19927;-71
2022/07/19 02:59:20;;;;;;;;;;;;;;;30.61;45.79;98986.94;2103715;28;19928;-71
2022/07/19 03:00:37;;;;;;;;;;;;;;;30.62;45.58;98997.63;2106260;28;19928;-71
2022/07/19 03:01:38;;;;;;;;;;;;;;;30.61;45.62;98992.41;2106494;28;19927;-71
2022/07/19 03:02:40;;;;;;;;;;;;;;;30.61;45.57;98987.75;2100757;28;20479;-71
2022/07/19 03:03:43;;;;;;;;;;;;;;;30.61;45.62;98986.94;2106053;28;20384;-71
2022/07/19 03:04:45;;;;;;;;;;;;;;;30.61;45.69;98986.94;2103479;28;19924;-71
2022/07/19 03:05:46;;;;;;;;;;;;;;;30.61;45.46;98989.66;2106093;28;20702;-71
2022/07/19 03:06:47;;;;;;;;;;;;;;;30.59;45.62;98989.97;2106029;28;19969;-71
2022/07/19 03:07:48;;;;;;;;;;;;;;;30.61;45.55;98992.41;2104529;28;20589;-71
2022/07/19 03:08:50;;;;;;;;;;;;;;;30.60;45.53;98988.03;2101483;28;20041;-71
2022/07/19 03:09:52;;;;;;;;;;;;;;;30.60;45.83;98988.84;2106850;28;19924;-71
2022/07/19 03:10:53;;;;;;;;;;;;;;;30.59;45.67;98984.47;2100545;28;19957;-71
2022/07/19 03:11:58;;;;;;;;;;;;;;;30.60;45.45;98990.78;2104549;28;19931;-71
2022/07/19 03:12:59;;;;;;;;;;;;;;;30.60;45.76;98990.78;2100564;28;20182;-71
2022/07/19 03:14:00;;;;;;;;;;;;;;;30.59;45.47;98989.97;2104074;28;19946;-71
2022/07/19 03:15:01;;;;;;;;;;;;;;;30.60;45.62;98988.03;2103873;28;20834;-70
2022/07/19 03:16:03;;;;;;;;;;;;;;;30.59;45.35;98995.44;2103497;28;19924;-71
2022/07/19 03:17:03;;;;;;;;;;;;;;;30.59;45.50;98989.09;2106427;28;20147;-71
2022/07/19 03:18:05;;;;;;;;;;;;;;;30.59;45.49;98994.59;2104821;28;19958;-71
2022/07/19 03:19:08;;;;;;;;;;;;;;;30.58;45.55;98987.47;2102610;28;19931;-71
2022/07/19 03:20:10;;;;;;;;;;;;;;;30.59;45.68;98994.59;2104558;28;19934;-71
2022/07/19 03:21:11;;;;;;;;;;;;;;;30.60;45.38;98998.97;2105725;28;19932;-71
2022/07/19 03:22:12;;;;;;;;;;;;;;;30.58;45.58;99001.16;2101660;28;20361;-71
2022/07/19 03:23:13;;;;;;;;;;;;;;;30.59;45.66;98997.31;2105053;28;20131;-70
2022/07/19 03:24:15;;;;;;;;;;;;;;;30.58;45.67;98992.94;2102258;28;19927;-71
2022/07/19 03:25:17;;;;;;;;;;;;;;;30.58;45.52;98996.50;2102959;28;19923;-73
2022/07/19 03:26:24;;;;;;;;;;;;;;;30.56;45.65;98992.41;2095072;28;19974;-70
2022/07/19 03:27:24;;;;;;;;;;;;;;;30.57;45.46;98991.31;2094473;28;19942;-70
2022/07/19 03:28:26;;;;;;;;;;;;;;;30.58;45.48;99001.16;2102336;28;20127;-70
2022/07/19 03:29:28;;;;;;;;;;;;;;;30.56;45.57;98995.13;2104741;28;19923;-70
2022/07/19 03:30:28;;;;;;;;;;;;;;;30.57;45.82;98996.81;2106703;28;19934;-70
2022/07/19 03:31:30;;;;;;;;;;;;;;;30.56;45.52;98995.13;2103269;28;20153;-71
2022/07/19 03:32:30;;;;;;;;;;;;;;;30.57;45.58;98999.53;2102067;28;19931;-70
2022/07/19 03:33:32;;;;;;;;;;;;;;;30.56;45.90;98995.13;2100724;28;20113;-71
2022/07/19 03:34:33;;;;;;;;;;;;;;;30.56;45.85;99000.59;2102256;28;20097;-70
2022/07/19 03:35:34;;;;;;;;;;;;;;;30.55;45.64;99002.53;2098810;28;20273;-70
2022/07/19 03:36:36;;;;;;;;;;;;;;;30.55;45.91;98998.97;2105950;28;20318;-70
2022/07/19 03:37:36;;;;;;;;;;;;;;;30.55;45.93;98998.97;2105616;28;20039;-70
2022/07/19 03:38:38;;;;;;;;;;;;;;;30.54;45.85;99002.81;2104128;28;19934;-71
2022/07/19 03:39:38;;;;;;;;;;;;;;;30.55;45.83;99002.53;2106831;28;19934;-70
2022/07/19 03:40:42;;;;;;;;;;;;;;;30.54;45.85;99003.63;2104282;28;20311;-71
2022/07/19 03:41:42;;;;;;;;;;;;;;;30.54;46.01;98998.16;2103270;28;19931;-70
2022/07/19 03:42:44;;;;;;;;;;;;;;;30.54;45.77;99000.09;2106190;28;20416;-70
2022/07/19 03:43:44;;;;;;;;;;;;;;;30.54;45.84;99006.38;2103068;28;20037;-70
2022/07/19 03:44:46;;;;;;;;;;;;;;;30.54;45.78;99008.28;2105450;27;19923;-71
2022/07/19 03:45:47;;;;;;;;;;;;;;;30.54;45.90;99003.63;2107136;28;19924;-70
2022/07/19 03:46:48;;;;;;;;;;;;;;;30.54;45.76;99000.91;2104546;28;20024;-70
2022/07/19 03:47:49;;;;;;;;;;;;;;;30.55;45.80;99004.47;2105224;28;19924;-70
2022/07/19 03:48:51;;;;;;;;;;;;;;;30.54;45.85;99003.63;2101593;28;20475;-70
2022/07/19 03:49:51;;;;;;;;;;;;;;;30.53;45.85;99001.16;2104195;28;19951;-70
2022/07/19 03:50:53;;;;;;;;;;;;;;;30.53;45.79;99001.16;2101837;27;19945;-70
2022/07/19 03:51:53;;;;;;;;;;;;;;;30.53;45.92;99003.91;2104995;28;19927;-70
2022/07/19 03:52:55;;;;;;;;;;;;;;;30.53;45.78;99010.19;2100877;28;19927;-71
2022/07/19 03:53:56;;;;;;;;;;;;;;;30.53;45.95;99007.44;2103174;28;20266;-70
2022/07/19 03:54:57;;;;;;;;;;;;;;;30.52;45.79;99008.56;2103640;28;19936;-70
2022/07/19 03:56:00;;;;;;;;;;;;;;;30.53;45.58;99017.59;2103058;28;19936;-70
2022/07/19 03:57:00;;;;;;;;;;;;;;;30.53;45.81;99007.44;2097411;28;20300;-70
2022/07/19 03:58:02;;;;;;;;;;;;;;;30.52;45.90;99016.78;2100996;28;19928;-70
2022/07/19 03:59:04;;;;;;;;;;;;;;;30.53;45.77;99014.84;2098593;28;22679;-71
2022/07/19 04:00:06;;;;;;;;;;;;;;;30.53;45.81;99009.38;2103790;28;20342;-70
2022/07/19 04:01:07;;;;;;;;;;;;;;;30.53;45.59;99009.38;2104387;28;19958;-70
2022/07/19 04:02:09;;;;;;;;;;;;;;;30.52;45.94;99014.03;2104553;28;20334;-70
2022/07/19 04:03:09;;;;;;;;;;;;;;;30.53;45.85;99010.19;2104830;28;20376;-70
2022/07/19 04:04:11;;;;;;;;;;;;;;;30.52;45.78;99011.28;2102260;28;20030;-70
2022/07/19 04:05:11;;;;;;;;;;;;;;;30.51;45.89;99012.41;2103712;28;20122;-71
2022/07/19 04:06:13;;;;;;;;;;;;;;;30.52;45.60;99010.47;2102820;28;20034;-71
2022/07/19 04:07:14;;;;;;;;;;;;;;;30.52;45.46;99013.22;2100505;28;19927;-71
2022/07/19 04:08:15;;;;;;;;;;;;;;;30.52;45.57;99011.28;2102967;28;19993;-70
2022/07/19 04:09:16;;;;;;;;;;;;;;;30.51;45.72;99012.41;2102968;28;19924;-71
2022/07/19 04:10:17;;;;;;;;;;;;;;;30.51;45.63;99015.13;2107213;28;20389;-70
2022/07/19 04:11:20;;;;;;;;;;;;;;;30.52;45.49;99015.94;2102388;28;20186;-70
2022/07/19 04:12:21;;;;;;;;;;;;;;;30.52;45.66;99015.94;2103313;28;19928;-70
2022/07/19 04:13:22;;;;;;;;;;;;;;;30.53;45.52;99017.59;2105396;28;19935;-71
2022/07/19 04:14:23;;;;;;;;;;;;;;;30.51;45.63;99017.88;2107601;28;19927;-71
2022/07/19 04:15:24;;;;;;;;;;;;;;;30.51;45.43;99020.63;2103413;28;20037;-71
2022/07/19 04:16:25;;;;;;;;;;;;;;;30.50;45.80;99018.94;2101187;28;19931;-70
2022/07/19 04:17:26;;;;;;;;;;;;;;;30.49;45.72;99020.88;2104224;28;20026;-71
2022/07/19 04:18:28;;;;;;;;;;;;;;;30.49;45.68;99023.59;2103930;28;20906;-71
2022/07/19 04:19:28;;;;;;;;;;;;;;;30.50;45.44;99019.78;2102071;28;19934;-70
2022/07/19 04:20:30;;;;;;;;;;;;;;;30.49;45.64;99020.88;2104002;28;19928;-70
2022/07/19 04:21:30;;;;;;;;;;;;;;;30.50;45.89;99025.25;2103395;28;20051;-71
2022/07/19 04:22:32;;;;;;;;;;;;;;;30.49;45.41;99020.88;2102776;28;20011;-70
2022/07/19 04:23:35;;;;;;;;;;;;;;;30.50;45.44;99024.44;2107446;28;20411;-71
2022/07/19 04:24:36;;;;;;;;;;;;;;;30.49;45.43;99023.59;2101469;28;19931;-73
2022/07/19 04:25:37;;;;;;;;;;;;;;;30.50;45.57;99029.91;2102050;28;19928;-70
2022/07/19 04:26:40;;;;;;;;;;;;;;;30.49;45.48;99029.09;2101108;28;20455;-70
2022/07/19 04:27:42;;;;;;;;;;;;;;;30.49;45.47;99029.09;2103200;28;19934;-70
2022/07/19 04:28:42;;;;;;;;;;;;;;;30.50;45.39;99032.63;2102216;28;20181;-71
2022/07/19 04:29:44;;;;;;;;;;;;;;;30.49;45.41;99023.59;2102152;28;20216;-70
2022/07/19 04:30:44;;;;;;;;;;;;;;;30.49;45.51;99025.53;2104025;28;19927;-70
2022/07/19 04:31:46;;;;;;;;;;;;;;;30.48;45.65;99027.44;2105234;28;20027;-70
2022/07/19 04:32:47;;;;;;;;;;;;;;;30.49;45.60;99036.47;2105226;28;20412;-71
2022/07/19 04:33:48;;;;;;;;;;;;;;;30.48;45.75;99038.41;2102362;28;19932;-71
2022/07/19 04:34:50;;;;;;;;;;;;;;;30.48;45.40;99041.13;2104870;28;19924;-70
2022/07/19 04:35:51;;;;;;;;;;;;;;;30.48;45.75;99032.09;2102029;28;19932;-71
2022/07/19 04:36:53;;;;;;;;;;;;;;;30.48;45.35;99037.59;2104925;28;19931;-71
2022/07/19 04:37:53;;;;;;;;;;;;;;;30.48;45.37;99041.13;2103107;28;19924;-71
2022/07/19 04:38:55;;;;;;;;;;;;;;;30.49;45.72;99039.22;2103882;28;19981;-71
2022/07/19 04:39:56;;;;;;;;;;;;;;;30.48;45.40;99038.41;2101336;28;19924;-71
2022/07/19 04:40:57;;;;;;;;;;;;;;;30.48;45.62;99035.66;2104645;28;19930;-71
2022/07/19 04:41:59;;;;;;;;;;;;;;;30.49;45.37;99042.78;2103627;28;20157;-71
2022/07/19 04:43:01;;;;;;;;;;;;;;;30.49;45.61;99040.03;2103354;28;20333;-71
2022/07/19 04:44:02;;;;;;;;;;;;;;;30.49;45.60;99044.69;2103695;28;20312;-71
2022/07/19 04:45:04;;;;;;;;;;;;;;;30.48;45.75;99037.59;2103321;28;19924;-71
2022/07/19 04:46:06;;;;;;;;;;;;;;;30.47;45.47;99039.47;2105343;28;19954;-71
2022/07/19 04:47:07;;;;;;;;;;;;;;;30.48;45.53;99043.06;2101848;28;20356;-71
2022/07/19 04:48:08;;;;;;;;;;;;;;;30.48;45.38;99046.59;2106203;28;20483;-71
2022/07/19 04:49:09;;;;;;;;;;;;;;;30.48;45.40;99043.06;2105492;28;20426;-71
2022/07/19 04:50:10;;;;;;;;;;;;;;;30.46;45.69;99043.31;2104432;28;20377;-71
2022/07/19 04:51:11;;;;;;;;;;;;;;;30.46;45.56;99046.06;2104861;28;19928;-71
2022/07/19 04:52:13;;;;;;;;;;;;;;;30.48;45.46;99048.53;2103281;28;20204;-71
2022/07/19 04:53:13;;;;;;;;;;;;;;;30.46;45.47;99043.31;2102474;28;20293;-71
2022/07/19 04:54:15;;;;;;;;;;;;;;;30.47;45.84;99049.59;2103845;28;19928;-71
2022/07/19 04:55:16;;;;;;;;;;;;;;;30.46;45.55;99048.78;2103666;28;19924;-71
2022/07/19 04:56:17;;;;;;;;;;;;;;;30.45;45.41;99041.69;2101596;28;20420;-71
2022/07/19 04:57:20;;;;;;;;;;;;;;;30.46;45.61;99045.25;2102552;28;19939;-71
2022/07/19 04:58:20;;;;;;;;;;;;;;;30.46;45.72;99042.50;2104341;28;19924;-71
2022/07/19 04:59:22;;;;;;;;;;;;;;;30.45;45.67;99044.41;2104320;28;20407;-71
2022/07/19 05:00:23;;;;;;;;;;;;;;;30.45;45.53;99041.69;2099788;28;20428;-71
2022/07/19 05:01:24;;;;;;;;;;;;;;;30.46;45.63;99045.25;2102776;28;20010;-71
2022/07/19 05:02:26;;;;;;;;;;;;;;;30.46;45.43;99048.78;2104218;28;19923;-71
2022/07/19 05:03:26;;;;;;;;;;;;;;;30.45;45.39;99046.31;2103144;28;20090;-71
2022/07/19 05:04:28;;;;;;;;;;;;;;;30.45;45.76;99044.41;2105277;28;19950;-71
2022/07/19 05:05:29;;;;;;;;;;;;;;;30.44;45.67;99048.22;2103587;28;19935;-71
2022/07/19 05:06:30;;;;;;;;;;;;;;;30.45;45.68;99051.78;2104725;28;20395;-71
2022/07/19 05:07:31;;;;;;;;;;;;;;;30.45;45.69;99049.91;2105648;28;20305;-71
2022/07/19 05:08:32;;;;;;;;;;;;;;;30.45;45.48;99052.63;2099078;28;19932;-71
2022/07/19 05:09:33;;;;;;;;;;;;;;;30.44;45.48;99050.97;2101287;28;19932;-71
2022/07/19 05:10:35;;;;;;;;;;;;;;;30.44;45.53;99053.72;2104400;28;20417;-71
2022/07/19 05:11:35;;;;;;;;;;;;;;;30.45;45.37;99049.06;2102111;28;19996;-71
2022/07/19 05:12:38;;;;;;;;;;;;;;;30.44;45.43;99058.38;2105333;28;19932;-71
2022/07/19 05:13:39;;;;;;;;;;;;;;;30.45;45.41;99054.53;2104801;28;19980;-71
2022/07/19 05:14:41;;;;;;;;;;;;;;;30.43;45.62;99049.34;2102621;28;20452;-71
2022/07/19 05:15:41;;;;;;;;;;;;;;;30.44;45.61;99058.38;2101251;28;19928;-71
2022/07/19 05:16:43;;;;;;;;;;;;;;;30.43;45.78;99060.28;2104020;28;19962;-71
2022/07/19 05:17:45;;;;;;;;;;;;;;;30.43;45.65;99052.06;2104937;28;19924;-71
2022/07/19 05:18:45;;;;;;;;;;;;;;;30.43;45.63;99056.72;2102123;28;19931;-71
2022/07/19 05:19:47;;;;;;;;;;;;;;;30.45;45.61;99058.09;2105823;28;19931;-71
2022/07/19 05:20:47;;;;;;;;;;;;;;;30.43;45.42;99060.28;2103039;28;19931;-71